Time;durP1;ratioP1;P1;durP2;ratioP2;P2;SDS_P1;SDS_P2;PMS_P1;PMS_P2;Temp;Humidity;BMP_temperature;BMP_pressure;BME280_temperature;BME280_humidity;BME280_pressure;Samples;Min_cycle;Max_cycle;Signal;HPM_P1;HPM_P2
2022/01/15 00:01:41;;;;;;;2.67;2.47;;;;;;;7.31;55.92;94791.00;5073044;28;20334;-71
2022/01/15 00:04:07;;;;;;;4.33;3.20;;;;;;;7.52;55.40;94799.00;5068816;28;20846;-71
2022/01/15 00:06:33;;;;;;;4.60;4.13;;;;;;;7.53;54.96;94808.47;5092399;28;20430;-72
2022/01/15 00:08:58;;;;;;;2.13;2.03;;;;;;;7.18;55.99;94800.16;5071936;28;20183;-71
2022/01/15 00:11:24;;;;;;;3.57;2.90;;;;;;;7.34;56.29;94799.28;5076367;28;20249;-71
2022/01/15 00:13:58;;;;;;;4.90;3.30;;;;;;;7.66;55.37;94809.69;5074317;28;20256;-70
2022/01/15 00:16:45;;;;;;;3.57;3.27;;;;;;;7.42;55.99;94801.03;5086109;28;20185;-72
2022/01/15 00:19:12;;;;;;;4.20;2.93;;;;;;;7.24;55.80;94790.84;5076395;28;20468;-71
2022/01/15 00:21:37;;;;;;;3.20;3.00;;;;;;;7.18;56.18;94800.16;5070210;28;20449;-71
2022/01/15 00:24:03;;;;;;;4.20;3.40;;;;;;;7.20;56.21;94789.56;5068430;28;20497;-70
2022/01/15 00:26:29;;;;;;;3.43;3.07;;;;;;;7.31;56.86;94788.41;5085893;28;20181;-70
2022/01/15 00:28:54;;;;;;;4.00;3.07;;;;;;;7.62;55.95;94810.00;5067042;28;20914;-71
2022/01/15 00:31:20;;;;;;;3.20;2.90;;;;;;;7.47;56.18;94810.91;5064138;28;20198;-72
2022/01/15 00:33:46;;;;;;;3.33;3.03;;;;;;;7.20;56.34;94816.41;5087054;28;20188;-71
2022/01/15 00:36:11;;;;;;;4.30;4.00;;;;;;;7.50;56.54;94823.59;5087124;28;20455;-71
2022/01/15 00:38:37;;;;;;;3.80;3.50;;;;;;;7.61;55.79;94831.03;5073136;28;20181;-72
2022/01/15 00:41:02;;;;;;;3.43;3.13;;;;;;;7.74;55.33;94828.69;5082962;28;20195;-71
2022/01/15 00:43:28;;;;;;;4.23;3.83;;;;;;;7.95;55.01;94822.84;5076967;28;20211;-72
2022/01/15 00:45:57;;;;;;;3.67;2.97;;;;;;;7.62;55.97;94827.44;5078062;28;20190;-71
2022/01/15 00:48:22;;;;;;;4.80;3.33;;;;;;;7.39;56.12;94825.59;5086292;28;20196;-71
2022/01/15 00:50:48;;;;;;;3.97;2.87;;;;;;;7.49;56.18;94827.97;5076621;28;20424;-71
2022/01/15 00:53:13;;;;;;;2.63;2.43;;;;;;;7.47;56.45;94827.34;5082986;28;20178;-71
2022/01/15 00:55:39;;;;;;;3.63;3.10;;;;;;;7.34;56.81;94816.66;5086754;28;20683;-71
2022/01/15 00:58:04;;;;;;;4.37;3.23;;;;;;;7.39;56.95;94822.19;5084732;28;20192;-72
2022/01/15 01:00:30;;;;;;;4.53;2.50;;;;;;;7.63;56.08;94808.25;5074986;28;20235;-72
2022/01/15 01:02:55;;;;;;;6.20;3.30;;;;;;;7.55;56.43;94809.09;5068317;28;20213;-72
2022/01/15 01:05:21;;;;;;;3.10;2.90;;;;;;;7.04;57.56;94806.06;5061496;28;20277;-71
2022/01/15 01:07:47;;;;;;;4.43;3.57;;;;;;;7.66;56.35;94801.88;5080335;28;20182;-71
2022/01/15 01:10:49;;;;;;;3.67;3.37;;;;;;;7.67;55.29;94800.91;5066525;28;21147;-71
2022/01/15 01:13:27;;;;;;;3.53;3.23;;;;;;;7.72;56.16;94811.59;5079835;28;20468;-72
2022/01/15 01:24:01;;;;;;;4.07;3.67;;;;;;;7.35;57.30;94807.91;5075754;28;20464;-71
2022/01/15 01:26:38;;;;;;;4.70;3.87;;;;;;;7.52;56.59;94803.41;5082688;28;20412;-71
2022/01/15 01:32:30;;;;;;;3.47;3.03;;;;;;;7.49;56.59;94793.34;5050270;28;20447;-71
2022/01/15 01:34:55;;;;;;;3.57;3.30;;;;;;;7.39;56.97;94794.34;5084643;28;20432;-71
2022/01/15 01:37:33;;;;;;;3.23;3.00;;;;;;;7.18;56.99;94787.13;5085832;28;20426;-71
2022/01/15 01:40:17;;;;;;;4.07;3.70;;;;;;;7.17;57.85;94782.09;5083671;28;20583;-71
2022/01/15 01:42:52;;;;;;;3.07;2.87;;;;;;;7.10;57.33;94765.56;5078383;28;20416;-70
2022/01/15 01:45:17;;;;;;;3.50;3.27;;;;;;;7.45;56.69;94790.25;5072309;28;20469;-71
2022/01/15 01:47:44;;;;;;;4.87;4.13;;;;;;;7.16;57.20;94768.28;5067317;28;20428;-70
2022/01/15 01:50:13;;;;;;;3.43;3.13;;;;;;;7.58;56.57;94793.09;5085292;28;20241;-71
2022/01/15 01:52:40;;;;;;;3.53;3.03;;;;;;;7.42;56.38;94794.03;5072652;28;20455;-70
2022/01/15 01:55:06;;;;;;;3.43;2.50;;;;;;;7.43;56.87;94795.63;5084444;28;20894;-71
2022/01/15 01:57:32;;;;;;;4.53;3.60;;;;;;;7.29;56.72;94798.16;5069827;28;20458;-71
2022/01/15 01:59:58;;;;;;;4.57;3.00;;;;;;;7.36;56.31;94788.66;5063827;28;20528;-71
2022/01/15 02:02:23;;;;;;;3.30;3.00;;;;;;;7.54;55.73;94798.84;5065970;28;20428;-72
2022/01/15 02:04:49;;;;;;;4.47;3.43;;;;;;;7.55;55.61;94797.84;5080729;28;20198;-71
2022/01/15 02:07:15;;;;;;;4.63;3.13;;;;;;;7.61;55.62;94787.56;5077468;28;20227;-71
2022/01/15 02:09:41;;;;;;;4.33;3.87;;;;;;;7.79;54.55;94789.06;5077537;28;20190;-71
2022/01/15 02:12:07;;;;;;;8.27;3.53;;;;;;;7.92;53.83;94804.94;5073562;28;20419;-71
2022/01/15 02:14:32;;;;;;;3.87;2.67;;;;;;;7.79;54.18;94797.69;5054699;28;20275;-72
2022/01/15 02:16:58;;;;;;;6.77;4.87;;;;;;;8.14;53.33;94792.09;5051347;28;20195;-71
2022/01/15 02:19:44;;;;;;;5.20;4.70;;;;;;;7.94;53.52;94792.56;5073323;28;20185;-72
2022/01/15 02:24:54;;;;;;;5.30;4.27;;;;;;;7.64;54.30;94796.81;5075910;28;20463;-71
2022/01/15 02:27:19;;;;;;;3.60;3.03;;;;;;;7.45;55.21;94805.06;5071855;28;20437;-72
2022/01/15 02:29:45;;;;;;;4.40;4.03;;;;;;;7.73;54.94;94800.19;5075832;28;20179;-70
2022/01/15 02:32:10;;;;;;;5.40;2.33;;;;;;;7.35;55.29;94805.28;5059694;28;20669;-70
2022/01/15 02:34:35;;;;;;;4.10;3.77;;;;;;;7.55;54.96;94803.06;5072373;28;20261;-70
2022/01/15 02:37:01;;;;;;;5.27;4.10;;;;;;;7.75;55.15;94809.44;5074632;28;20676;-72
2022/01/15 02:39:26;;;;;;;4.80;4.10;;;;;;;7.49;55.47;94803.75;5065471;28;20182;-72
2022/01/15 02:41:52;;;;;;;4.97;3.83;;;;;;;7.72;54.33;94804.59;5069437;28;20655;-71
2022/01/15 02:44:19;;;;;;;5.00;4.30;;;;;;;7.38;55.52;94817.94;5079033;28;20221;-71
2022/01/15 02:49:14;;;;;;;4.77;4.13;;;;;;;7.45;54.21;94823.31;5068589;28;20433;-71
2022/01/15 02:51:40;;;;;;;7.00;4.80;;;;;;;7.26;55.04;94829.72;5081181;28;20424;-71
2022/01/15 02:54:06;;;;;;;3.73;3.40;;;;;;;6.89;55.62;94821.56;5082112;28;20507;-70
2022/01/15 02:56:39;;;;;;;8.40;4.83;;;;;;;7.30;55.12;94815.38;5072570;28;20202;-71
2022/01/15 02:59:07;;;;;;;4.80;4.40;;;;;;;7.36;54.33;94825.13;5076916;28;20493;-70
2022/01/15 03:01:33;;;;;;;5.77;5.17;;;;;;;7.34;54.55;94827.91;5081887;28;20504;-71
2022/01/15 03:03:59;;;;;;;4.93;4.43;;;;;;;7.27;54.39;94815.75;5083842;28;20494;-71
2022/01/15 03:06:24;;;;;;;5.77;4.53;;;;;;;7.55;54.24;94829.94;5069982;28;20499;-69
2022/01/15 03:08:51;;;;;;;6.37;5.17;;;;;;;7.24;54.94;94843.72;5088174;28;20277;-71
2022/01/15 03:11:17;;;;;;;6.90;4.57;;;;;;;7.43;53.93;94852.09;5086633;28;20231;-70
2022/01/15 03:13:43;;;;;;;6.83;5.57;;;;;;;7.37;53.80;94840.56;5083467;28;20424;-70
2022/01/15 03:16:11;;;;;;;5.13;4.00;;;;;;;6.88;53.85;94848.53;5069752;28;20420;-70
2022/01/15 03:18:37;;;;;;;8.03;5.03;;;;;;;6.96;53.59;94842.50;5080509;28;20467;-71
2022/01/15 03:21:03;;;;;;;7.43;5.23;;;;;;;6.87;53.52;94840.91;5081737;28;20416;-70
2022/01/15 03:23:28;;;;;;;6.60;5.60;;;;;;;6.82;53.25;94818.81;5083611;28;20201;-71
2022/01/15 03:25:54;;;;;;;7.30;5.90;;;;;;;7.32;52.11;94823.84;5079479;28;20814;-72
2022/01/15 03:28:19;;;;;;;12.70;6.00;;;;;;;7.12;52.63;94829.47;5082631;28;20183;-72
2022/01/15 03:30:45;;;;;;;10.07;6.57;;;;;;;6.48;53.88;94811.25;5061497;28;20181;-71
2022/01/15 03:33:11;;;;;;;7.70;4.87;;;;;;;6.76;53.79;94809.06;5087440;28;20189;-71
2022/01/15 03:35:37;;;;;;;8.57;5.50;;;;;;;7.01;52.97;94829.81;5087654;28;20747;-71
2022/01/15 03:38:04;;;;;;;6.27;5.70;;;;;;;6.99;53.36;94829.97;5070953;28;20217;-71
2022/01/15 03:40:31;;;;;;;5.40;4.00;;;;;;;6.62;54.05;94825.34;5077006;28;20424;-71
2022/01/15 03:42:57;;;;;;;7.80;4.77;;;;;;;6.72;54.08;94838.19;5053168;28;21017;-70
2022/01/15 03:45:23;;;;;;;5.87;4.33;;;;;;;6.63;54.30;94850.38;5086954;28;20470;-71
2022/01/15 03:47:49;;;;;;;7.20;6.60;;;;;;;6.57;54.84;94851.84;5083570;28;20454;-71
2022/01/15 03:50:16;;;;;;;5.77;4.67;;;;;;;6.81;54.07;94848.41;5058968;28;20447;-71
2022/01/15 03:52:42;;;;;;;7.80;5.73;;;;;;;6.82;54.23;94860.41;5093642;28;20193;-72
2022/01/15 03:55:09;;;;;;;8.00;5.90;;;;;;;7.06;53.92;94840.53;5086748;28;20444;-72
2022/01/15 03:57:36;;;;;;;6.87;6.00;;;;;;;6.87;54.35;94856.50;5066034;28;20284;-71
2022/01/15 04:00:06;;;;;;;7.70;4.63;;;;;;;6.62;55.31;94872.16;5076305;28;20436;-71
2022/01/15 04:02:32;;;;;;;8.90;5.80;;;;;;;6.95;54.80;94870.31;5075979;28;20409;-69
2022/01/15 04:04:57;;;;;;;10.10;4.93;;;;;;;6.80;54.62;94862.38;5071973;28;20464;-71
2022/01/15 04:07:22;;;;;;;6.63;4.90;;;;;;;6.62;56.08;94856.53;5076341;28;20212;-72
2022/01/15 04:09:48;;;;;;;7.80;5.93;;;;;;;6.78;55.18;94873.94;5083714;28;20228;-70
2022/01/15 04:12:13;;;;;;;6.57;5.33;;;;;;;7.01;55.03;94874.84;5068212;28;20190;-71
2022/01/15 04:14:39;;;;;;;6.30;5.67;;;;;;;7.10;54.55;94886.06;5077501;28;20527;-71
2022/01/15 04:17:04;;;;;;;7.03;5.63;;;;;;;7.00;54.73;94888.03;5055708;28;20305;-70
2022/01/15 04:19:30;;;;;;;4.77;4.20;;;;;;;6.48;56.28;94893.63;5070176;28;20225;-71
2022/01/15 04:21:55;;;;;;;6.53;5.87;;;;;;;6.75;55.57;94897.66;5079598;28;20188;-70
2022/01/15 04:24:21;;;;;;;8.73;5.90;;;;;;;6.67;55.43;94888.06;5076764;28;20214;-70
2022/01/15 04:26:48;;;;;;;8.30;5.83;;;;;;;6.98;54.55;94900.38;5072160;28;20703;-71
2022/01/15 04:29:15;;;;;;;9.00;6.57;;;;;;;6.70;54.67;94902.56;5074913;28;20428;-70
2022/01/15 04:31:48;;;;;;;9.30;7.20;;;;;;;6.79;55.05;94906.75;5071977;28;20409;-71
2022/01/15 04:34:25;;;;;;;7.23;5.43;;;;;;;6.35;56.05;94915.69;5057789;28;20436;-71
2022/01/15 04:36:52;;;;;;;8.37;6.70;;;;;;;6.86;54.92;94901.72;5080012;28;20430;-70
2022/01/15 04:39:17;;;;;;;9.53;6.40;;;;;;;6.59;56.10;94906.28;5079444;28;20827;-72
2022/01/15 04:41:43;;;;;;;8.03;6.60;;;;;;;6.28;56.68;94909.53;5054949;28;20513;-72
2022/01/15 04:44:09;;;;;;;9.50;7.23;;;;;;;6.78;55.73;94903.34;5072973;28;20248;-71
2022/01/15 04:46:36;;;;;;;11.67;6.50;;;;;;;6.63;55.78;94891.97;5084277;28;20451;-71
2022/01/15 04:49:06;;;;;;;8.60;7.80;;;;;;;5.94;57.67;94905.22;5078955;28;20594;-73
2022/01/15 04:51:33;;;;;;;7.73;6.27;;;;;;;6.45;56.94;94910.38;5081813;28;20410;-71
2022/01/15 04:53:58;;;;;;;8.50;7.70;;;;;;;6.67;56.11;94921.88;5085630;28;20458;-72
2022/01/15 04:56:24;;;;;;;10.33;7.27;;;;;;;6.28;57.19;94919.09;5067866;28;20412;-70
2022/01/15 04:58:50;;;;;;;5.03;4.47;;;;;;;6.29;57.40;94912.94;5080936;28;20274;-71
2022/01/15 05:01:15;;;;;;;12.83;8.47;;;;;;;6.75;56.41;94915.88;5075035;28;20296;-74
2022/01/15 05:03:41;;;;;;;8.60;7.70;;;;;;;6.33;57.36;94917.63;5078716;28;20459;-71
2022/01/15 05:06:07;;;;;;;10.20;8.07;;;;;;;6.62;57.32;94918.94;5082843;28;20193;-71
2022/01/15 05:08:32;;;;;;;9.67;6.90;;;;;;;6.40;57.03;94916.03;5086113;28;20204;-71
2022/01/15 05:11:00;;;;;;;12.03;7.50;;;;;;;6.80;56.28;94922.19;5072234;28;20700;-71
2022/01/15 05:13:29;;;;;;;9.63;5.73;;;;;;;6.29;58.05;94931.94;5066915;28;20182;-71
2022/01/15 05:15:55;;;;;;;7.13;5.23;;;;;;;6.23;58.02;94917.78;5072725;28;20424;-70
2022/01/15 05:18:21;;;;;;;11.83;8.70;;;;;;;6.92;56.28;94937.47;5085986;28;20432;-71
2022/01/15 05:20:47;;;;;;;11.97;8.23;;;;;;;6.35;57.72;94938.28;5074469;28;20429;-72
2022/01/15 05:23:13;;;;;;;11.63;7.30;;;;;;;6.55;57.94;94937.00;5080361;28;20252;-72
2022/01/15 05:25:38;;;;;;;11.90;8.53;;;;;;;6.92;56.86;94935.66;5064953;28;20188;-72
2022/01/15 05:28:04;;;;;;;10.53;8.10;;;;;;;6.69;57.32;94943.31;5064679;28;20190;-71
2022/01/15 05:30:30;;;;;;;9.43;8.10;;;;;;;6.54;57.01;94945.75;5071713;28;20191;-70
2022/01/15 05:32:56;;;;;;;12.20;7.80;;;;;;;6.70;56.45;94950.16;5079620;28;20181;-72
2022/01/15 05:35:26;;;;;;;11.43;8.70;;;;;;;6.68;57.02;94951.28;5075013;28;20182;-72
2022/01/15 05:37:52;;;;;;;11.63;7.93;;;;;;;6.72;56.43;94952.63;5069367;28;20452;-71
2022/01/15 05:40:18;;;;;;;12.30;8.37;;;;;;;6.52;57.28;94958.09;5067011;28;20522;-72
2022/01/15 05:42:43;;;;;;;15.83;9.87;;;;;;;6.74;57.10;94959.25;5068439;28;20415;-71
2022/01/15 05:45:10;;;;;;;13.37;8.97;;;;;;;6.66;57.04;94954.06;5074353;28;20247;-71
2022/01/15 05:47:35;;;;;;;12.90;8.60;;;;;;;6.61;57.66;94962.34;5071462;28;20194;-71
2022/01/15 05:50:01;;;;;;;11.00;8.60;;;;;;;6.17;58.18;94964.41;5085361;28;20431;-72
2022/01/15 05:52:26;;;;;;;9.37;6.90;;;;;;;6.45;57.20;94957.97;5087452;28;20184;-71
2022/01/15 05:54:52;;;;;;;11.50;8.73;;;;;;;6.66;57.54;94972.28;5075116;28;20637;-71
2022/01/15 05:57:17;;;;;;;6.00;5.47;;;;;;;6.50;57.88;94957.47;5074045;28;20187;-70
2022/01/15 05:59:44;;;;;;;10.07;8.30;;;;;;;6.55;57.21;94973.41;5067063;28;20240;-71
2022/01/15 06:02:10;;;;;;;13.00;9.00;;;;;;;6.55;57.85;94976.00;5079752;28;20226;-72
2022/01/15 06:04:36;;;;;;;8.60;6.87;;;;;;;6.52;56.96;94991.09;5072394;28;20475;-71
2022/01/15 06:07:02;;;;;;;11.17;9.80;;;;;;;6.71;57.02;94997.78;5049371;28;20194;-71
2022/01/15 06:09:27;;;;;;;7.37;6.63;;;;;;;6.37;57.46;94989.13;5079304;28;20233;-71
2022/01/15 06:11:56;;;;;;;8.20;7.50;;;;;;;6.34;58.34;94991.25;5078140;28;20448;-72
2022/01/15 06:14:21;;;;;;;10.37;9.27;;;;;;;6.52;57.93;94998.91;5058811;28;20511;-72
2022/01/15 06:16:48;;;;;;;6.37;5.73;;;;;;;6.34;58.52;95005.03;5077060;28;20494;-72
2022/01/15 06:19:14;;;;;;;10.90;6.87;;;;;;;6.38;58.44;95008.94;5081048;28;21258;-71
2022/01/15 06:21:39;;;;;;;10.23;9.27;;;;;;;6.31;58.93;95005.34;5065764;28;20428;-71
2022/01/15 06:24:05;;;;;;;11.33;10.27;;;;;;;6.48;58.72;95013.19;5071402;28;20704;-71
2022/01/15 06:26:30;;;;;;;11.10;9.60;;;;;;;6.42;58.42;95012.84;5070779;28;20190;-70
2022/01/15 06:28:56;;;;;;;13.53;11.23;;;;;;;6.56;58.04;95015.81;5076322;28;20446;-70
2022/01/15 06:31:21;;;;;;;13.87;10.33;;;;;;;6.81;57.06;95014.88;5084645;28;20185;-71
2022/01/15 06:33:47;;;;;;;12.17;9.87;;;;;;;6.30;59.16;95016.75;5066243;28;20256;-70
2022/01/15 06:36:12;;;;;;;13.70;10.47;;;;;;;6.43;58.25;95027.50;5059769;28;20197;-69
2022/01/15 06:38:41;;;;;;;8.93;8.10;;;;;;;6.05;59.46;95023.63;5073660;28;20186;-71
2022/01/15 06:41:06;;;;;;;13.17;11.37;;;;;;;6.55;58.40;95014.19;5073923;28;20189;-72
2022/01/15 06:43:32;;;;;;;13.93;11.83;;;;;;;6.23;59.24;95016.53;5083823;28;20470;-71
2022/01/15 06:45:57;;;;;;;13.47;9.50;;;;;;;5.91;60.16;95012.00;5082076;28;20213;-71
2022/01/15 06:48:23;;;;;;;13.63;9.70;;;;;;;6.14;59.64;95027.88;5059061;28;20190;-71
2022/01/15 06:50:48;;;;;;;14.80;10.27;;;;;;;6.27;59.45;95029.22;5075245;28;20214;-70
2022/01/15 06:53:14;;;;;;;9.13;8.13;;;;;;;5.83;60.17;95027.56;5053336;28;21090;-71
2022/01/15 06:55:40;;;;;;;15.60;11.10;;;;;;;6.39;58.99;95030.56;5067421;28;20195;-72
2022/01/15 06:58:05;;;;;;;11.80;10.60;;;;;;;6.27;58.88;95031.81;5068842;28;20212;-71
2022/01/15 07:00:31;;;;;;;14.33;9.93;;;;;;;6.16;58.97;95030.31;5053907;28;20503;-71
2022/01/15 07:03:00;;;;;;;8.80;7.67;;;;;;;5.80;60.24;95030.47;5071220;28;20187;-71
2022/01/15 07:05:26;;;;;;;14.10;10.20;;;;;;;5.91;59.95;95024.19;5069197;28;20193;-71
2022/01/15 07:07:52;;;;;;;9.83;8.80;;;;;;;6.20;59.66;95026.44;5080431;28;20470;-69
2022/01/15 07:10:18;;;;;;;17.67;9.77;;;;;;;6.32;59.04;95035.59;5068802;28;20243;-72
2022/01/15 07:12:44;;;;;;;20.97;11.47;;;;;;;6.38;58.44;95055.72;5083443;28;20423;-71
2022/01/15 07:15:11;;;;;;;20.53;11.80;;;;;;;6.32;58.70;95050.34;5069822;28;20499;-71
2022/01/15 07:17:42;;;;;;;10.37;9.17;;;;;;;5.99;59.84;95056.22;5080325;28;20628;-70
2022/01/15 07:20:08;;;;;;;9.63;8.10;;;;;;;6.16;59.58;95051.09;5069202;28;20431;-72
2022/01/15 07:22:33;;;;;;;17.10;8.30;;;;;;;5.92;59.85;95060.41;5065872;28;20888;-72
2022/01/15 07:24:59;;;;;;;14.97;10.80;;;;;;;6.12;59.77;95070.59;5078643;28;20540;-71
2022/01/15 07:27:24;;;;;;;15.47;10.90;;;;;;;6.63;58.20;95066.19;5074236;28;20202;-72
2022/01/15 07:29:50;;;;;;;14.80;12.20;;;;;;;6.58;58.34;95077.09;5073890;28;20182;-72
2022/01/15 07:32:15;;;;;;;19.23;10.37;;;;;;;6.32;58.45;95074.56;5067436;28;20189;-72
2022/01/15 07:34:41;;;;;;;14.30;8.83;;;;;;;6.42;58.07;95084.81;5052121;28;20539;-71
2022/01/15 07:37:06;;;;;;;16.77;9.70;;;;;;;6.50;58.06;95092.66;5055540;28;20654;-72
2022/01/15 07:39:34;;;;;;;14.30;11.13;;;;;;;6.50;58.38;95100.44;5078292;28;20284;-71
2022/01/15 07:41:59;;;;;;;19.27;11.60;;;;;;;6.26;58.43;95098.59;5068174;28;20250;-71
2022/01/15 07:44:25;;;;;;;16.00;10.10;;;;;;;6.77;57.81;95090.75;5074803;28;20468;-71
2022/01/15 07:46:50;;;;;;;13.63;11.40;;;;;;;6.74;57.35;95091.91;5067491;28;20186;-71
2022/01/15 07:49:16;;;;;;;16.00;12.70;;;;;;;6.88;57.50;95089.66;5068182;28;20183;-71
2022/01/15 07:51:41;;;;;;;16.30;10.67;;;;;;;6.74;57.11;95091.09;5061809;28;20182;-71
2022/01/15 07:54:07;;;;;;;15.40;12.30;;;;;;;6.59;57.86;95093.50;5082845;28;20186;-72
2022/01/15 07:56:32;;;;;;;14.70;10.87;;;;;;;6.69;57.50;95101.16;5073414;28;20302;-71
2022/01/15 07:58:58;;;;;;;19.87;13.53;;;;;;;6.54;57.04;95108.75;5077427;28;20190;-71
2022/01/15 08:01:23;;;;;;;15.53;11.63;;;;;;;6.83;56.96;95116.16;5076321;28;20222;-71
2022/01/15 08:03:49;;;;;;;19.00;11.77;;;;;;;6.16;57.77;95114.28;5079201;28;20205;-72
2022/01/15 08:06:15;;;;;;;18.27;11.87;;;;;;;6.10;59.00;95104.50;5080625;28;20186;-70
2022/01/15 08:08:40;;;;;;;15.83;12.53;;;;;;;6.36;57.86;95120.06;5063280;28;20197;-71
2022/01/15 08:11:06;;;;;;;12.57;9.50;;;;;;;6.43;57.42;95110.66;5076993;28;20507;-72
2022/01/15 08:13:32;;;;;;;14.90;11.53;;;;;;;5.97;58.98;95123.09;5083999;28;20185;-72
2022/01/15 08:15:59;;;;;;;16.50;12.53;;;;;;;6.44;58.24;95127.88;5077061;28;20213;-71
2022/01/15 08:18:26;;;;;;;9.63;6.73;;;;;;;6.17;58.18;95141.09;5064631;28;20186;-71
2022/01/15 08:20:51;;;;;;;17.50;12.57;;;;;;;6.32;57.47;95144.75;5077691;28;20417;-72
2022/01/15 08:23:17;;;;;;;14.77;12.07;;;;;;;6.32;57.86;95156.91;5078793;28;21194;-72
2022/01/15 08:25:42;;;;;;;15.97;11.57;;;;;;;6.30;58.05;95161.44;5076396;28;20182;-72
2022/01/15 08:28:08;;;;;;;13.50;9.40;;;;;;;6.22;57.76;95141.44;5083251;28;20188;-71
2022/01/15 08:30:34;;;;;;;20.97;13.63;;;;;;;5.90;59.07;95145.47;5060575;28;20261;-71
2022/01/15 08:32:59;;;;;;;14.87;10.70;;;;;;;6.56;56.53;95162.22;5085908;28;20174;-71
2022/01/15 08:35:25;;;;;;;15.83;11.17;;;;;;;5.68;58.73;95155.34;5085931;28;20707;-71
2022/01/15 08:37:51;;;;;;;15.60;13.00;;;;;;;5.89;59.00;95162.00;5081823;28;20186;-71
2022/01/15 08:40:19;;;;;;;21.87;12.80;;;;;;;6.72;56.02;95169.28;5076505;28;20421;-71
2022/01/15 08:42:45;;;;;;;22.53;12.03;;;;;;;6.30;56.66;95166.63;5083795;28;20239;-72
2022/01/15 08:45:13;;;;;;;12.83;9.37;;;;;;;6.04;57.93;95170.09;5072885;28;20421;-71
2022/01/15 08:47:38;;;;;;;17.27;12.03;;;;;;;6.54;56.47;95182.34;5058142;28;20186;-71
2022/01/15 08:50:06;;;;;;;25.70;14.20;;;;;;;6.97;54.94;95184.97;5079419;28;20426;-71
2022/01/15 08:52:31;;;;;;;17.53;13.50;;;;;;;6.57;56.09;95179.44;5079591;28;20182;-71
2022/01/15 08:54:57;;;;;;;14.97;11.60;;;;;;;6.29;56.48;95178.81;5085884;28;20428;-71
2022/01/15 08:57:23;;;;;;;13.07;8.90;;;;;;;6.16;57.00;95181.84;5083792;28;20200;-71
2022/01/15 08:59:48;;;;;;;16.43;12.43;;;;;;;6.38;56.57;95170.09;5079497;28;20189;-71
2022/01/15 09:02:14;;;;;;;16.07;11.00;;;;;;;6.43;56.39;95182.63;5059388;28;20218;-71
2022/01/15 09:04:40;;;;;;;14.40;11.20;;;;;;;6.80;55.96;95173.69;5085595;28;20198;-71
2022/01/15 09:07:05;;;;;;;13.33;10.30;;;;;;;7.00;54.07;95180.25;5083158;28;20421;-73
2022/01/15 09:09:31;;;;;;;15.73;11.47;;;;;;;7.07;54.31;95185.63;5078177;28;20192;-74
2022/01/15 09:11:56;;;;;;;17.60;12.07;;;;;;;6.71;55.62;95180.63;5065381;28;20455;-71
2022/01/15 09:14:22;;;;;;;11.00;8.97;;;;;;;6.41;55.51;95201.00;5067972;28;20470;-71
2022/01/15 09:16:49;;;;;;;15.10;10.17;;;;;;;6.76;54.71;95183.59;5085247;28;20202;-71
2022/01/15 09:19:14;;;;;;;18.93;11.20;;;;;;;6.77;54.17;95195.63;5083302;28;20428;-71
2022/01/15 09:21:40;;;;;;;27.87;13.53;;;;;;;7.10;54.37;95195.72;5074108;28;20194;-71
2022/01/15 09:24:05;;;;;;;12.63;10.70;;;;;;;7.22;53.43;95197.03;5079241;28;20289;-71
2022/01/15 09:31:57;;;;;;;15.00;10.50;;;;;;;7.17;53.82;95191.53;5068685;28;20475;-71
2022/01/15 09:34:22;;;;;;;9.93;8.90;;;;;;;7.03;53.74;95189.53;5054366;28;20480;-72
2022/01/15 09:36:48;;;;;;;11.07;6.27;;;;;;;7.49;52.40;95184.72;5070713;28;20205;-71
2022/01/15 09:39:14;;;;;;;16.87;11.60;;;;;;;6.53;54.82;95179.94;5079807;28;20611;-70
2022/01/15 09:41:46;;;;;;;17.77;10.53;;;;;;;6.81;53.80;95177.91;5075317;28;20212;-71
2022/01/15 09:44:13;;;;;;;11.17;7.43;;;;;;;6.64;54.29;95169.25;5050409;28;20460;-71
2022/01/15 09:46:39;;;;;;;15.13;10.63;;;;;;;6.84;53.88;95175.00;5066346;28;20467;-70
2022/01/15 09:49:07;;;;;;;14.23;6.40;;;;;;;6.47;53.95;95173.56;5065582;28;20457;-71
2022/01/15 09:51:33;;;;;;;16.20;10.63;;;;;;;6.64;53.74;95164.06;5070693;28;20436;-70
2022/01/15 09:53:59;;;;;;;15.40;10.60;;;;;;;6.53;54.62;95172.13;5075265;28;20429;-71
2022/01/15 09:56:25;;;;;;;14.20;10.67;;;;;;;6.59;54.55;95166.31;5078452;28;21069;-71
2022/01/15 09:58:54;;;;;;;9.27;8.30;;;;;;;6.62;53.98;95164.19;5066604;28;20528;-71
2022/01/15 10:01:20;;;;;;;14.27;9.03;;;;;;;6.61;54.30;95174.75;5067618;28;20241;-71
2022/01/15 10:03:45;;;;;;;12.67;9.70;;;;;;;6.83;53.79;95175.97;5068054;28;20463;-71
2022/01/15 10:06:11;;;;;;;17.00;10.33;;;;;;;6.93;53.47;95170.66;5080671;28;20448;-71
2022/01/15 10:08:37;;;;;;;13.97;9.53;;;;;;;6.70;54.25;95184.22;5064330;28;20185;-70
2022/01/15 10:11:11;;;;;;;15.27;9.60;;;;;;;6.41;54.55;95179.38;5066637;28;20198;-70
2022/01/15 10:13:44;;;;;;;12.60;10.40;;;;;;;7.16;52.51;95176.88;5071431;28;20796;-71
2022/01/15 10:16:21;;;;;;;13.83;9.87;;;;;;;7.39;51.41;95168.44;5074755;28;20417;-72
2022/01/15 10:18:47;;;;;;;12.83;9.87;;;;;;;7.38;51.94;95175.44;5079603;28;20514;-71
2022/01/15 10:21:19;;;;;;;13.97;11.80;;;;;;;8.09;50.69;95169.72;5070087;28;20554;-71
2022/01/15 10:23:50;;;;;;;14.40;8.33;;;;;;;7.83;50.96;95160.28;5073427;28;20475;-71
2022/01/15 10:26:19;;;;;;;14.40;10.30;;;;;;;7.82;51.65;95169.09;5073173;28;20480;-71
2022/01/15 10:28:59;;;;;;;15.80;11.60;;;;;;;7.40;52.53;95164.88;5062285;28;20590;-71
2022/01/15 10:31:31;;;;;;;11.83;8.80;;;;;;;7.52;51.67;95160.97;5063500;28;20424;-72
2022/01/15 10:34:20;;;;;;;11.83;9.70;;;;;;;7.99;51.03;95149.88;5066441;28;20413;-71
2022/01/15 10:36:46;;;;;;;10.43;8.37;;;;;;;8.12;50.49;95127.66;5068744;28;20462;-72
2022/01/15 10:39:17;;;;;;;16.23;10.90;;;;;;;8.66;49.04;95135.66;5074709;28;20504;-72
2022/01/15 10:41:43;;;;;;;12.83;9.83;;;;;;;8.25;49.56;95134.97;5067906;28;20186;-70
2022/01/15 10:44:28;;;;;;;12.53;9.20;;;;;;;8.89;48.21;95140.13;5077754;28;20465;-71
2022/01/15 10:47:12;;;;;;;14.60;10.50;;;;;;;9.71;46.83;95142.19;5051370;28;20416;-72
2022/01/15 10:49:39;;;;;;;15.30;11.00;;;;;;;10.61;45.00;95143.94;5068936;28;20429;-72
2022/01/15 10:52:11;;;;;;;14.07;10.70;;;;;;;11.48;42.87;95135.22;5063504;28;20423;-72
2022/01/15 10:55:02;;;;;;;15.77;10.87;;;;;;;11.79;42.45;95128.81;5077080;28;20432;-71
2022/01/15 10:57:34;;;;;;;9.77;8.80;;;;;;;10.37;43.41;95136.34;5069132;28;20419;-72
2022/01/15 11:00:21;;;;;;;14.10;9.13;;;;;;;10.28;44.57;95138.22;5080138;28;20428;-71
2022/01/15 11:02:50;;;;;;;25.60;10.20;;;;;;;9.71;44.79;95129.13;5051159;28;20432;-73
2022/01/15 11:05:31;;;;;;;10.63;8.57;;;;;;;10.54;43.89;95146.44;5075360;28;20456;-72
2022/01/15 11:08:03;;;;;;;12.87;8.83;;;;;;;10.18;43.82;95141.09;5073345;28;20423;-72
2022/01/15 11:10:36;;;;;;;8.63;7.80;;;;;;;10.24;43.47;95153.44;5076099;28;20440;-72
2022/01/15 11:13:04;;;;;;;10.53;8.90;;;;;;;9.91;44.58;95145.13;5061227;28;20448;-72
2022/01/15 11:15:30;;;;;;;9.97;8.97;;;;;;;10.81;41.99;95140.72;5070286;28;20448;-71
2022/01/15 11:17:55;;;;;;;14.37;8.90;;;;;;;10.23;44.16;95132.72;5076303;28;20485;-72
2022/01/15 11:20:23;;;;;;;11.37;8.40;;;;;;;10.42;43.04;95141.88;5078653;28;20251;-71
2022/01/15 11:22:49;;;;;;;11.87;8.90;;;;;;;9.63;45.32;95134.41;5076490;28;20190;-71
2022/01/15 11:25:14;;;;;;;13.27;9.87;;;;;;;10.57;43.03;95134.81;5068192;28;20496;-72
2022/01/15 11:27:40;;;;;;;14.57;9.80;;;;;;;10.91;42.19;95125.56;5073825;28;20181;-71
2022/01/15 11:30:07;;;;;;;11.70;8.67;;;;;;;10.14;43.52;95124.94;5083394;28;20186;-71
2022/01/15 11:32:33;;;;;;;10.57;9.47;;;;;;;9.56;44.48;95118.63;5080986;28;20267;-72
2022/01/15 11:35:08;;;;;;;10.63;8.83;;;;;;;10.02;43.41;95122.97;5084317;28;20510;-72
2022/01/15 11:37:52;;;;;;;6.80;5.43;;;;;;;9.30;44.61;95119.00;5080890;28;20822;-71
2022/01/15 11:40:39;;;;;;;13.20;9.97;;;;;;;9.55;44.14;95117.81;5066561;28;20423;-72
2022/01/15 11:43:23;;;;;;;14.43;8.60;;;;;;;7.96;48.77;95124.13;5082654;28;20419;-72
2022/01/15 11:45:53;;;;;;;15.43;11.07;;;;;;;8.50;46.95;95126.13;5071370;28;20495;-71
2022/01/15 11:48:26;;;;;;;16.47;10.47;;;;;;;8.23;48.13;95124.72;5085577;28;20411;-71
2022/01/15 11:51:13;;;;;;;13.93;9.10;;;;;;;8.64;47.66;95108.94;5078580;28;20915;-72
2022/01/15 11:53:48;;;;;;;13.30;9.53;;;;;;;9.50;45.71;95121.94;5078040;28;20950;-71
2022/01/15 11:56:28;;;;;;;11.13;8.67;;;;;;;9.83;44.78;95127.72;5075583;28;20424;-72
2022/01/15 11:58:57;;;;;;;11.83;9.53;;;;;;;10.11;43.92;95129.72;5073469;28;21254;-72